Time;durP1;ratioP1;P1;durP2;ratioP2;P2;SDS_P1;SDS_P2;PMS_P1;PMS_P2;Temp;Humidity;BMP_temperature;BMP_pressure;BME280_temperature;BME280_humidity;BME280_pressure;Samples;Min_cycle;Max_cycle;Signal;HPM_P1;HPM_P2
2024/01/24 00:00:10;;;;;;;8.20;6.82;;;20.80;99.90;;;;;;5034637;28;20066;-51
2024/01/24 00:02:37;;;;;;;3.25;1.77;;;20.70;99.90;;;;;;5038807;28;20158;-50
2024/01/24 00:05:04;;;;;;;5.78;2.00;;;20.60;99.90;;;;;;5041137;28;20063;-53
2024/01/24 00:07:31;;;;;;;5.95;2.30;;;20.60;99.90;;;;;;5053540;28;20148;-53
2024/01/24 00:09:58;;;;;;;12.45;2.05;;;20.60;99.90;;;;;;5038697;28;20076;-51
2024/01/24 00:12:24;;;;;;;9.65;2.92;;;20.50;99.90;;;;;;5052766;28;20184;-50
2024/01/24 00:14:51;;;;;;;5.85;2.15;;;20.50;99.90;;;;;;5044557;28;20077;-52
2024/01/24 00:17:17;;;;;;;5.53;1.50;;;20.50;99.90;;;;;;5041854;28;20070;-47
2024/01/24 00:19:44;;;;;;;13.65;5.80;;;20.40;99.90;;;;;;5028088;28;20081;-48
2024/01/24 00:22:11;;;;;;;12.90;7.05;;;20.30;99.90;;;;;;5040426;28;20783;-51
2024/01/24 00:24:38;;;;;;;6.70;4.00;;;20.10;99.90;;;;;;5039826;28;20156;-49
2024/01/24 00:27:05;;;;;;;8.13;2.35;;;20.10;99.90;;;;;;5033155;28;20069;-51
2024/01/24 00:29:31;;;;;;;5.82;2.40;;;20.10;99.90;;;;;;5057266;28;20065;-50
2024/01/24 00:31:58;;;;;;;8.18;5.25;;;20.20;99.90;;;;;;5043176;28;20065;-51
2024/01/24 00:34:24;;;;;;;13.48;8.85;;;20.10;99.90;;;;;;5054999;28;20092;-50
2024/01/24 00:36:51;;;;;;;19.48;13.27;;;19.90;99.90;;;;;;5043910;28;20167;-48
2024/01/24 00:39:18;;;;;;;15.60;11.05;;;19.80;99.90;;;;;;5052669;28;20073;-49
2024/01/24 00:41:44;;;;;;;13.20;7.85;;;19.70;99.90;;;;;;5031785;28;20093;-49
2024/01/24 00:44:10;;;;;;;6.50;2.70;;;19.70;99.90;;;;;;5042051;28;20069;-51
2024/01/24 00:46:39;;;;;;;6.07;2.10;;;19.50;99.90;;;;;;5043344;28;20065;-52
2024/01/24 00:49:10;;;;;;;12.60;3.00;;;19.40;99.90;;;;;;5033412;28;20070;-47
2024/01/24 00:51:37;;;;;;;10.25;2.78;;;19.30;99.90;;;;;;5043505;28;20452;-53
2024/01/24 00:54:04;;;;;;;6.35;2.55;;;19.20;99.90;;;;;;5062472;28;20076;-45
2024/01/24 00:56:30;;;;;;;11.68;2.80;;;19.00;99.90;;;;;;5044924;28;20065;-62
2024/01/24 00:58:57;;;;;;;10.13;2.90;;;19.00;99.90;;;;;;5042608;28;20123;-54
2024/01/24 01:01:23;;;;;;;15.10;3.38;;;18.80;99.90;;;;;;5060756;28;20097;-52
2024/01/24 01:03:50;;;;;;;8.70;3.88;;;18.80;99.90;;;;;;5043101;28;20061;-51
2024/01/24 01:06:18;;;;;;;9.63;4.05;;;18.70;99.90;;;;;;5059231;28;20191;-50
2024/01/24 01:08:44;;;;;;;14.88;3.63;;;18.50;99.90;;;;;;5048474;28;20058;-54
2024/01/24 01:11:11;;;;;;;21.58;5.10;;;18.40;99.90;;;;;;5039584;28;20422;-52
2024/01/24 01:13:38;;;;;;;16.67;5.20;;;18.20;99.90;;;;;;5044065;28;20100;-55
2024/01/24 01:16:05;;;;;;;18.20;5.63;;;18.10;99.90;;;;;;5056827;28;20072;-49
2024/01/24 01:18:31;;;;;;;17.65;6.43;;;18.00;99.90;;;;;;5055293;28;20083;-51
2024/01/24 01:20:58;;;;;;;22.92;6.13;;;17.90;99.90;;;;;;5038810;28;20212;-55
2024/01/24 01:23:24;;;;;;;15.77;6.78;;;17.80;99.90;;;;;;5051862;28;20065;-51
2024/01/24 01:25:51;;;;;;;15.82;6.97;;;17.70;99.90;;;;;;5040075;28;20199;-52
2024/01/24 01:28:17;;;;;;;24.25;7.40;;;17.60;99.90;;;;;;5026435;28;20069;-50
2024/01/24 01:30:44;;;;;;;14.00;6.15;;;17.50;99.90;;;;;;5038937;28;20057;-49
2024/01/24 01:33:12;;;;;;;25.67;6.97;;;17.40;99.90;;;;;;5041157;28;20077;-50
2024/01/24 01:35:38;;;;;;;16.85;7.30;;;17.50;99.90;;;;;;5029112;28;20065;-49
2024/01/24 01:38:05;;;;;;;26.27;7.85;;;17.50;99.90;;;;;;5045243;28;20112;-60
2024/01/24 01:40:31;;;;;;;19.10;7.38;;;17.50;99.90;;;;;;5047008;28;20065;-56
2024/01/24 01:42:59;;;;;;;25.98;7.47;;;17.40;99.90;;;;;;5046626;28;20228;-53
2024/01/24 01:45:26;;;;;;;16.38;7.25;;;17.30;99.90;;;;;;5042398;28;20069;-52
2024/01/24 01:47:52;;;;;;;19.20;7.70;;;17.20;99.90;;;;;;5036563;28;20111;-50
2024/01/24 01:50:19;;;;;;;27.88;8.18;;;17.10;99.90;;;;;;5036174;28;20062;-52
2024/01/24 01:52:47;;;;;;;28.88;9.10;;;17.10;99.90;;;;;;5054951;28;20100;-51
2024/01/24 01:55:14;;;;;;;34.95;10.13;;;17.00;99.90;;;;;;5043536;28;20487;-52
2024/01/24 01:57:43;;;;;;;30.55;12.85;;;17.00;99.90;;;;;;5057079;28;20065;-47
2024/01/24 02:00:11;;;;;;;44.83;13.52;;;16.90;99.90;;;;;;5043915;28;20536;-49
2024/01/24 02:02:37;;;;;;;36.28;11.82;;;16.80;99.90;;;;;;5040347;28;20654;-47
2024/01/24 02:05:05;;;;;;;31.40;11.23;;;16.70;99.90;;;;;;5041031;28;20069;-47
2024/01/24 02:07:31;;;;;;;23.90;10.45;;;16.80;99.90;;;;;;5056984;28;20776;-49
2024/01/24 02:09:57;;;;;;;47.60;11.73;;;16.80;99.90;;;;;;5042280;28;20065;-47
2024/01/24 02:12:24;;;;;;;48.25;10.32;;;16.80;99.90;;;;;;5039856;28;20104;-49
2024/01/24 02:14:51;;;;;;;26.10;9.57;;;16.80;99.90;;;;;;5042687;28;20380;-58
2024/01/24 02:17:17;;;;;;;43.10;10.07;;;16.80;99.90;;;;;;5049046;28;20543;-52
2024/01/24 02:19:44;;;;;;;32.45;10.13;;;16.80;99.90;;;;;;5042772;28;20577;-49
2024/01/24 02:22:10;;;;;;;33.53;9.05;;;16.80;99.90;;;;;;5042232;28;20176;-53
2024/01/24 02:24:37;;;;;;;31.60;9.13;;;16.80;99.90;;;;;;5052271;28;20094;-45
2024/01/24 02:27:03;;;;;;;24.88;9.55;;;16.80;99.90;;;;;;5032772;28;20093;-47
2024/01/24 02:29:30;;;;;;;28.17;9.55;;;16.80;99.90;;;;;;5037372;28;20093;-47
2024/01/24 02:31:56;;;;;;;32.97;9.50;;;16.70;99.90;;;;;;5041360;28;20084;-44
2024/01/24 02:34:23;;;;;;;34.20;11.77;;;16.70;99.90;;;;;;5043484;28;20073;-44
2024/01/24 02:36:49;;;;;;;44.88;19.50;;;16.70;99.90;;;;;;5063110;28;20101;-52
2024/01/24 02:39:17;;;;;;;40.05;23.38;;;16.70;99.90;;;;;;5043724;28;20084;-45
2024/01/24 02:41:44;;;;;;;42.08;19.45;;;16.70;99.90;;;;;;5056856;28;20089;-49
2024/01/24 02:44:11;;;;;;;42.50;16.75;;;16.60;99.90;;;;;;5060926;28;20509;-47
2024/01/24 02:46:37;;;;;;;26.90;13.35;;;16.60;99.90;;;;;;5047830;28;20215;-51
2024/01/24 02:49:04;;;;;;;25.90;10.90;;;16.50;99.90;;;;;;5058500;28;20061;-46
2024/01/24 02:51:30;;;;;;;26.25;12.02;;;16.40;99.90;;;;;;5041674;28;20070;-50
2024/01/24 02:53:57;;;;;;;43.63;12.57;;;16.40;99.90;;;;;;5032168;28;20066;-47
2024/01/24 02:56:23;;;;;;;33.65;11.27;;;16.30;99.90;;;;;;5057509;28;20144;-45
2024/01/24 02:58:50;;;;;;;48.13;12.93;;;16.20;99.90;;;;;;5052744;28;20214;-47
2024/01/24 03:01:16;;;;;;;39.08;12.70;;;16.20;99.90;;;;;;5039532;28;20093;-48
2024/01/24 03:03:43;;;;;;;34.30;13.57;;;16.10;99.90;;;;;;5060260;28;20151;-47
2024/01/24 03:06:10;;;;;;;32.28;13.75;;;16.10;99.90;;;;;;5036374;28;20078;-45
2024/01/24 03:08:57;;;;;;;44.95;14.70;;;16.00;99.90;;;;;;5046687;28;20072;-44
2024/01/24 03:11:24;;;;;;;49.55;14.15;;;16.00;99.90;;;;;;5052382;28;20188;-47
2024/01/24 03:13:50;;;;;;;41.13;13.80;;;16.00;99.90;;;;;;5041759;28;20127;-45
2024/01/24 03:16:18;;;;;;;44.08;14.65;;;15.90;99.90;;;;;;5043718;28;20069;-57
2024/01/24 03:18:44;;;;;;;38.53;14.38;;;15.90;99.90;;;;;;5046109;28;20069;-48
2024/01/24 03:21:17;;;;;;;33.35;14.80;;;15.90;99.90;;;;;;5045123;28;20100;-48
2024/01/24 03:23:44;;;;;;;49.95;15.50;;;15.80;99.90;;;;;;5040314;28;20073;-49
2024/01/24 03:26:13;;;;;;;39.28;15.15;;;15.80;99.90;;;;;;5037955;28;20080;-49
2024/01/24 03:28:39;;;;;;;39.88;14.77;;;15.80;99.90;;;;;;5043062;28;20068;-46
2024/01/24 03:31:06;;;;;;;35.17;16.25;;;15.80;99.90;;;;;;5041161;28;20069;-46
2024/01/24 03:33:32;;;;;;;53.92;17.38;;;15.70;99.90;;;;;;5051314;28;20061;-43
2024/01/24 03:35:59;;;;;;;42.05;16.27;;;15.70;99.90;;;;;;5043826;28;20454;-51
2024/01/24 03:38:25;;;;;;;47.40;17.10;;;15.70;99.90;;;;;;5036373;28;20069;-43
2024/01/24 03:40:52;;;;;;;41.95;16.52;;;15.70;99.90;;;;;;5036546;28;20966;-57
2024/01/24 03:43:18;;;;;;;36.67;16.25;;;15.70;99.90;;;;;;5037803;28;20058;-44
2024/01/24 03:45:45;;;;;;;41.15;16.77;;;15.60;99.90;;;;;;5041088;28;20080;-48
2024/01/24 03:48:12;;;;;;;44.22;17.42;;;15.60;99.90;;;;;;5030918;28;20155;-50
2024/01/24 03:50:38;;;;;;;49.85;18.45;;;15.50;99.90;;;;;;5045563;28;20061;-46
2024/01/24 03:53:05;;;;;;;51.83;19.67;;;15.50;99.90;;;;;;5039963;28;20592;-53
2024/01/24 03:55:33;;;;;;;49.20;21.73;;;15.50;99.90;;;;;;5039240;28;20065;-51
2024/01/24 03:57:59;;;;;;;74.25;23.80;;;15.50;99.90;;;;;;5055781;28;20065;-50
2024/01/24 04:00:27;;;;;;;58.70;24.27;;;15.40;99.90;;;;;;5060760;28;20069;-56
2024/01/24 04:02:53;;;;;;;47.88;20.98;;;15.40;99.90;;;;;;5042909;28;20112;-51
2024/01/24 04:05:20;;;;;;;63.60;21.67;;;15.40;99.90;;;;;;5043983;28;20065;-51
2024/01/24 04:07:47;;;;;;;48.95;20.15;;;15.30;99.90;;;;;;5042469;28;20252;-49
2024/01/24 04:10:15;;;;;;;58.97;20.42;;;15.20;99.90;;;;;;5057675;28;20065;-52
2024/01/24 04:12:42;;;;;;;53.67;21.08;;;15.10;99.90;;;;;;5038521;28;20113;-50
2024/01/24 04:15:09;;;;;;;45.88;18.98;;;15.10;99.90;;;;;;5062339;28;20111;-55
2024/01/24 04:17:35;;;;;;;54.08;20.55;;;15.10;99.90;;;;;;5039938;28;20081;-50
2024/01/24 04:20:02;;;;;;;47.85;18.67;;;15.10;99.90;;;;;;5060754;28;20065;-46
2024/01/24 04:22:28;;;;;;;40.45;19.40;;;15.10;99.90;;;;;;5040377;28;20097;-45
2024/01/24 04:24:55;;;;;;;44.17;19.23;;;15.10;99.90;;;;;;5057811;28;20072;-48
2024/01/24 04:27:23;;;;;;;46.08;18.83;;;15.10;99.90;;;;;;5060363;28;20084;-47
2024/01/24 04:29:50;;;;;;;39.17;17.98;;;15.10;99.90;;;;;;5059249;28;20069;-53
2024/01/24 04:32:16;;;;;;;52.10;20.98;;;15.20;99.90;;;;;;5041579;28;20061;-48
2024/01/24 04:34:43;;;;;;;55.67;20.60;;;15.10;99.90;;;;;;5056623;28;20062;-48
2024/01/24 04:37:10;;;;;;;45.85;20.27;;;15.10;99.90;;;;;;5039165;28;20101;-45
2024/01/24 04:39:37;;;;;;;54.42;21.58;;;15.10;99.90;;;;;;5039345;28;21333;-52
2024/01/24 04:42:06;;;;;;;56.60;21.88;;;15.10;99.90;;;;;;5059159;28;20089;-47
2024/01/24 04:44:33;;;;;;;53.92;22.25;;;15.10;99.90;;;;;;5059058;28;20073;-49
2024/01/24 04:47:01;;;;;;;45.55;20.65;;;15.10;99.90;;;;;;5055055;28;20061;-48
2024/01/24 04:49:27;;;;;;;48.78;21.40;;;15.10;99.90;;;;;;5039200;28;20073;-58
2024/01/24 04:51:54;;;;;;;46.38;19.30;;;15.10;99.90;;;;;;5059827;28;20076;-46
2024/01/24 04:54:20;;;;;;;36.95;17.95;;;15.10;99.90;;;;;;5039584;28;20153;-57
2024/01/24 04:56:47;;;;;;;36.10;19.95;;;15.10;99.90;;;;;;5044041;28;20167;-57
2024/01/24 04:59:15;;;;;;;46.78;23.90;;;15.10;99.90;;;;;;5044310;28;20068;-49
2024/01/24 05:01:42;;;;;;;61.13;27.67;;;15.20;99.90;;;;;;5062161;28;20098;-50
2024/01/24 05:04:09;;;;;;;51.45;27.98;;;15.20;99.90;;;;;;5048992;28;20084;-48
2024/01/24 05:06:36;;;;;;;62.45;29.15;;;15.20;99.90;;;;;;5047498;28;20119;-57
2024/01/24 05:09:04;;;;;;;63.22;30.23;;;15.30;99.90;;;;;;5042742;28;20070;-53
2024/01/24 05:11:30;;;;;;;73.65;31.98;;;15.30;99.90;;;;;;5060615;28;20154;-43
2024/01/24 05:14:00;;;;;;;70.55;30.27;;;15.40;99.90;;;;;;5049134;28;20112;-46
2024/01/24 05:16:28;;;;;;;74.35;31.17;;;15.40;99.90;;;;;;5057749;28;20069;-53
2024/01/24 05:18:55;;;;;;;69.60;28.58;;;15.40;99.90;;;;;;5064548;28;20170;-50
2024/01/24 05:21:22;;;;;;;61.88;29.42;;;15.40;99.90;;;;;;5042215;28;20131;-48
2024/01/24 05:23:50;;;;;;;53.75;24.80;;;15.40;99.90;;;;;;5049229;28;20099;-51
2024/01/24 05:26:17;;;;;;;70.43;20.75;;;15.40;99.90;;;;;;5042606;28;20085;-46
2024/01/24 05:28:44;;;;;;;50.42;22.25;;;15.50;99.90;;;;;;5048069;28;20072;-47
2024/01/24 05:31:10;;;;;;;48.20;22.30;;;15.50;99.90;;;;;;5045519;28;20112;-45
2024/01/24 05:33:37;;;;;;;57.03;23.27;;;15.50;99.90;;;;;;5041160;28;20097;-51
2024/01/24 05:36:04;;;;;;;64.95;23.85;;;15.50;99.90;;;;;;5057505;28;20065;-55
2024/01/24 05:38:33;;;;;;;56.63;22.60;;;15.50;99.90;;;;;;5043824;28;20076;-64
2024/01/24 05:40:59;;;;;;;52.00;21.58;;;16.00;99.90;;;;;;5054851;28;20481;-55
2024/01/24 05:43:26;;;;;;;64.38;23.25;;;16.30;99.90;;;;;;5038398;28;20516;-57
2024/01/24 05:45:52;;;;;;;64.90;22.95;;;16.70;99.90;;;;;;5058569;28;20115;-56
2024/01/24 05:48:19;;;;;;;52.90;22.55;;;16.90;99.90;;;;;;5044491;28;20069;-59
2024/01/24 05:50:45;;;;;;;69.10;22.90;;;17.40;99.90;;;;;;5056743;28;20074;-57
2024/01/24 05:53:12;;;;;;;59.30;21.60;;;17.40;99.90;;;;;;5060707;28;20076;-57
2024/01/24 05:55:38;;;;;;;65.70;22.48;;;17.20;99.90;;;;;;5041778;28;20597;-55
2024/01/24 05:58:08;;;;;;;67.10;21.70;;;17.40;99.90;;;;;;5062706;28;20072;-54
2024/01/24 06:00:34;;;;;;;68.65;21.55;;;17.20;99.90;;;;;;5044134;28;20069;-60
2024/01/24 06:03:01;;;;;;;62.20;21.45;;;17.20;99.90;;;;;;5046226;28;20146;-55
2024/01/24 06:05:27;;;;;;;64.95;22.83;;;17.00;99.90;;;;;;5048105;28;20069;-55
2024/01/24 06:07:53;;;;;;;68.97;23.83;;;16.80;99.90;;;;;;5056919;28;20532;-55
2024/01/24 06:10:20;;;;;;;74.18;24.88;;;16.50;99.90;;;;;;5043744;28;20120;-52
2024/01/24 06:12:46;;;;;;;80.22;25.52;;;16.50;99.90;;;;;;5051805;28;20105;-55
2024/01/24 06:15:13;;;;;;;58.28;23.67;;;16.50;99.90;;;;;;5048306;28;20107;-52
2024/01/24 06:17:39;;;;;;;67.63;23.45;;;16.40;99.90;;;;;;5058978;28;20061;-51
2024/01/24 06:20:07;;;;;;;88.25;26.48;;;16.60;99.90;;;;;;5044583;28;20140;-53
2024/01/24 06:22:33;;;;;;;71.20;25.67;;;16.50;99.90;;;;;;5064447;28;20089;-55
2024/01/24 06:25:02;;;;;;;66.63;24.90;;;16.40;99.90;;;;;;5060210;28;20151;-62
2024/01/24 06:27:29;;;;;;;73.68;25.10;;;16.30;99.90;;;;;;5048739;28;20131;-53
2024/01/24 06:29:56;;;;;;;78.47;30.90;;;16.30;99.90;;;;;;5045688;28;20115;-58
2024/01/24 06:32:22;;;;;;;74.93;30.20;;;16.20;99.90;;;;;;5049713;28;20217;-53
2024/01/24 06:34:49;;;;;;;71.18;30.40;;;16.10;99.90;;;;;;5063152;28;20061;-58
2024/01/24 06:37:15;;;;;;;76.80;29.13;;;16.10;99.90;;;;;;5048208;28;20089;-54
2024/01/24 06:39:42;;;;;;;60.15;26.50;;;16.10;99.90;;;;;;5054956;28;20076;-56
2024/01/24 06:42:08;;;;;;;55.53;24.38;;;16.00;99.90;;;;;;5068587;28;20093;-55
2024/01/24 06:44:35;;;;;;;55.58;23.67;;;16.10;99.90;;;;;;5036950;28;20065;-58
2024/01/24 06:47:01;;;;;;;76.07;23.63;;;16.00;99.90;;;;;;5040041;28;20068;-57
2024/01/24 06:49:28;;;;;;;50.55;23.02;;;16.00;99.90;;;;;;5048964;28;20147;-55
2024/01/24 06:51:55;;;;;;;57.38;23.30;;;16.00;99.90;;;;;;5035045;28;20512;-58
2024/01/24 06:54:22;;;;;;;63.20;23.65;;;15.90;99.90;;;;;;5058022;28;20542;-56
2024/01/24 06:56:48;;;;;;;63.67;22.52;;;15.70;99.90;;;;;;5058685;28;20132;-56
2024/01/24 06:59:15;;;;;;;57.20;22.38;;;15.80;99.90;;;;;;5048978;28;20061;-58
2024/01/24 07:01:41;;;;;;;63.17;22.00;;;15.70;99.90;;;;;;5053022;28;20092;-55
2024/01/24 07:04:08;;;;;;;56.15;22.92;;;15.60;99.90;;;;;;5055093;28;20069;-57
2024/01/24 07:06:34;;;;;;;65.05;23.48;;;15.50;99.90;;;;;;5056381;28;20061;-56
2024/01/24 07:09:01;;;;;;;67.93;23.17;;;15.50;99.90;;;;;;5055973;28;20065;-57
2024/01/24 07:11:28;;;;;;;58.03;25.48;;;15.40;99.90;;;;;;5042455;28;20594;-55
2024/01/24 07:13:55;;;;;;;72.82;37.92;;;15.30;99.90;;;;;;5046832;28;20081;-57
2024/01/24 07:16:21;;;;;;;64.05;23.48;;;15.30;99.90;;;;;;5039611;28;20544;-55
2024/01/24 07:18:48;;;;;;;57.33;23.45;;;15.30;99.90;;;;;;5058802;28;20068;-55
2024/01/24 07:21:15;;;;;;;57.38;23.20;;;15.20;99.90;;;;;;5053122;28;20170;-58
2024/01/24 07:23:41;;;;;;;62.63;22.75;;;15.20;99.90;;;;;;5046202;28;20057;-57
2024/01/24 07:26:08;;;;;;;65.07;24.85;;;15.20;99.90;;;;;;5049798;28;20053;-56
2024/01/24 07:28:35;;;;;;;57.22;22.88;;;15.10;99.90;;;;;;5044557;28;20065;-56
2024/01/24 07:31:02;;;;;;;59.42;22.38;;;15.00;99.90;;;;;;5042809;28;20107;-55
2024/01/24 07:33:28;;;;;;;56.40;23.38;;;15.00;99.90;;;;;;5038033;28;20105;-57
2024/01/24 07:35:55;;;;;;;71.55;24.83;;;14.90;99.90;;;;;;5037621;28;20126;-57
2024/01/24 07:38:21;;;;;;;56.53;22.90;;;14.80;99.90;;;;;;5041826;28;20080;-61
2024/01/24 07:40:48;;;;;;;72.88;24.48;;;14.80;99.90;;;;;;5038645;28;20582;-57
2024/01/24 07:43:15;;;;;;;58.88;23.70;;;14.90;99.90;;;;;;5035388;28;20562;-57
2024/01/24 07:45:42;;;;;;;61.85;23.65;;;14.90;99.90;;;;;;5033215;28;20062;-57
2024/01/24 07:48:13;;;;;;;79.53;28.73;;;14.80;99.90;;;;;;5039540;28;20222;-57
2024/01/24 07:50:43;;;;;;;71.43;29.45;;;14.80;99.90;;;;;;5041442;28;20068;-55
2024/01/24 07:53:11;;;;;;;75.70;37.13;;;14.70;99.90;;;;;;5050427;28;20141;-57
2024/01/24 07:55:37;;;;;;;81.75;34.65;;;14.80;99.90;;;;;;5046060;28;20069;-56
2024/01/24 07:58:04;;;;;;;72.57;33.53;;;14.70;99.90;;;;;;5044957;28;20210;-58
2024/01/24 08:00:31;;;;;;;77.65;35.28;;;14.60;99.90;;;;;;5043128;28;20160;-55
2024/01/24 08:03:00;;;;;;;68.65;32.92;;;14.60;99.90;;;;;;5059554;28;20118;-56
2024/01/24 08:05:29;;;;;;;49.55;24.08;;;14.50;99.90;;;;;;5048710;28;20202;-59
2024/01/24 08:07:56;;;;;;;47.47;21.90;;;14.50;99.90;;;;;;5047305;28;20538;-55
2024/01/24 08:10:23;;;;;;;46.22;19.60;;;14.50;99.90;;;;;;5039627;28;20068;-56
2024/01/24 08:12:50;;;;;;;37.30;19.42;;;14.60;99.90;;;;;;5056804;28;20140;-56
2024/01/24 08:15:17;;;;;;;38.50;17.80;;;14.60;99.90;;;;;;5038611;28;20084;-58
2024/01/24 08:17:43;;;;;;;42.15;17.13;;;14.50;99.90;;;;;;5043303;28;20065;-56
2024/01/24 08:20:11;;;;;;;43.25;15.15;;;14.50;99.90;;;;;;5057085;28;20065;-57
2024/01/24 08:22:38;;;;;;;32.08;14.18;;;14.50;99.90;;;;;;5047117;28;20195;-52
2024/01/24 08:25:05;;;;;;;27.50;11.88;;;14.40;99.90;;;;;;5036830;28;20149;-62
2024/01/24 08:27:32;;;;;;;28.80;13.20;;;14.40;99.90;;;;;;5042144;28;20073;-60
2024/01/24 08:29:59;;;;;;;23.67;12.13;;;14.40;99.90;;;;;;5047316;28;20084;-54
2024/01/24 08:32:26;;;;;;;33.85;12.68;;;14.20;99.90;;;;;;5041909;28;20156;-58
2024/01/24 08:34:52;;;;;;;22.70;11.00;;;14.30;99.90;;;;;;5036061;28;20666;-54
2024/01/24 08:37:20;;;;;;;32.63;11.77;;;14.20;99.90;;;;;;5049836;28;20073;-57
2024/01/24 08:39:47;;;;;;;33.50;12.18;;;14.20;99.90;;;;;;5046150;28;20070;-58
2024/01/24 08:42:13;;;;;;;26.60;11.68;;;14.10;99.90;;;;;;5054198;28;20127;-52
2024/01/24 08:44:40;;;;;;;25.15;11.75;;;14.10;99.90;;;;;;5053279;28;20053;-54
2024/01/24 08:47:06;;;;;;;22.05;9.98;;;14.00;99.90;;;;;;5044953;28;20073;-54
2024/01/24 08:49:33;;;;;;;20.15;9.50;;;13.90;99.90;;;;;;5059131;28;20065;-54
2024/01/24 08:51:59;;;;;;;27.65;9.52;;;13.90;99.90;;;;;;5055346;28;20070;-54
2024/01/24 08:54:26;;;;;;;19.38;8.77;;;13.90;99.90;;;;;;5045388;28;20065;-56
2024/01/24 08:56:53;;;;;;;17.88;8.85;;;13.90;99.90;;;;;;5045957;28;20538;-58
2024/01/24 08:59:20;;;;;;;23.73;8.70;;;13.80;99.90;;;;;;5046438;28;21049;-54
2024/01/24 09:01:46;;;;;;;20.90;8.43;;;13.80;99.90;;;;;;5047844;28;20100;-56
2024/01/24 09:04:14;;;;;;;14.68;8.15;;;13.80;99.90;;;;;;5056658;28;20095;-55
2024/01/24 09:06:42;;;;;;;23.10;8.20;;;13.90;99.90;;;;;;5039445;28;20126;-55
2024/01/24 09:09:13;;;;;;;18.58;7.68;;;13.80;99.90;;;;;;5048732;28;20469;-58
2024/01/24 09:11:41;;;;;;;23.35;9.43;;;13.70;99.90;;;;;;5058217;28;20100;-56
2024/01/24 09:14:07;;;;;;;18.30;8.50;;;13.70;99.90;;;;;;5033732;28;20093;-59
2024/01/24 09:16:36;;;;;;;22.88;8.63;;;13.60;99.90;;;;;;5055059;28;20103;-58
2024/01/24 09:19:03;;;;;;;16.88;8.65;;;13.60;99.90;;;;;;5055968;28;20149;-58
2024/01/24 09:21:30;;;;;;;20.65;7.93;;;13.50;99.90;;;;;;5053387;28;20095;-56
2024/01/24 09:23:57;;;;;;;21.25;8.73;;;13.60;99.90;;;;;;5048216;28;20069;-53
2024/01/24 09:26:23;;;;;;;18.50;8.75;;;13.60;99.90;;;;;;5050999;28;20065;-57
2024/01/24 09:28:50;;;;;;;17.73;8.02;;;13.50;99.90;;;;;;5037796;28;20093;-56
2024/01/24 09:31:17;;;;;;;20.90;9.18;;;13.60;99.90;;;;;;5037374;28;20538;-52
2024/01/24 09:33:43;;;;;;;21.25;9.70;;;13.50;99.90;;;;;;5058493;28;20057;-56
2024/01/24 09:36:09;;;;;;;29.48;10.27;;;13.50;99.90;;;;;;5044474;28;20160;-56
2024/01/24 09:38:36;;;;;;;21.42;9.48;;;13.30;99.90;;;;;;5046635;28;20073;-56
2024/01/24 09:41:09;;;;;;;23.55;9.68;;;13.40;99.90;;;;;;5056508;28;20563;-55
2024/01/24 09:43:39;;;;;;;21.73;9.15;;;13.30;99.90;;;;;;5059463;28;20512;-55
2024/01/24 09:46:12;;;;;;;17.08;9.48;;;13.30;99.90;;;;;;5040788;28;20065;-53
2024/01/24 09:48:40;;;;;;;24.92;10.40;;;13.30;99.90;;;;;;5045930;28;20061;-59
2024/01/24 09:51:08;;;;;;;18.83;9.52;;;13.30;99.90;;;;;;5053500;28;20508;-56
2024/01/24 09:53:42;;;;;;;24.13;9.40;;;13.20;99.90;;;;;;5059820;28;20069;-54
2024/01/24 09:56:09;;;;;;;20.15;9.88;;;13.20;99.90;;;;;;5039960;28;20153;-54
2024/01/24 09:58:36;;;;;;;23.67;9.48;;;13.10;99.90;;;;;;5054865;28;20102;-55
2024/01/24 10:01:05;;;;;;;18.45;8.13;;;13.00;99.90;;;;;;5054930;28;20061;-56
2024/01/24 10:03:32;;;;;;;20.30;9.73;;;12.90;99.90;;;;;;5053548;28;20081;-57
2024/01/24 10:06:00;;;;;;;19.55;8.20;;;12.90;99.90;;;;;;5054129;28;20061;-55
2024/01/24 10:08:28;;;;;;;22.05;9.82;;;12.80;99.90;;;;;;5047293;28;20061;-56
2024/01/24 10:10:54;;;;;;;23.80;10.07;;;12.80;99.90;;;;;;5068381;28;20065;-61
2024/01/24 10:13:25;;;;;;;18.42;9.20;;;12.70;99.90;;;;;;5043170;28;20186;-54
2024/01/24 10:15:54;;;;;;;21.52;10.20;;;12.70;99.90;;;;;;5044718;28;20073;-56
2024/01/24 10:18:22;;;;;;;15.15;8.38;;;12.80;99.90;;;;;;5047320;28;20537;-57
2024/01/24 10:20:49;;;;;;;28.42;8.50;;;12.80;99.90;;;;;;5041222;28;20534;-59
2024/01/24 10:23:16;;;;;;;18.20;8.13;;;12.80;99.90;;;;;;5036550;28;20105;-57
2024/01/24 10:25:42;;;;;;;18.77;8.48;;;12.80;99.90;;;;;;5041764;28;20065;-55
2024/01/24 10:28:16;;;;;;;19.30;8.95;;;12.80;99.90;;;;;;5044433;28;20100;-57
2024/01/24 10:30:43;;;;;;;16.95;8.15;;;12.90;99.90;;;;;;5045368;28;20088;-61
2024/01/24 10:33:13;;;;;;;20.30;8.40;;;12.80;99.90;;;;;;5037673;28;20155;-58
2024/01/24 10:35:40;;;;;;;22.45;9.10;;;12.90;99.90;;;;;;5037642;28;20431;-55
2024/01/24 10:38:13;;;;;;;22.17;8.35;;;12.90;99.90;;;;;;5040512;28;20085;-61
2024/01/24 10:40:40;;;;;;;19.63;7.03;;;12.80;99.90;;;;;;5039203;28;20480;-55
2024/01/24 10:43:11;;;;;;;18.90;6.85;;;12.80;99.90;;;;;;5038823;28;20113;-53
2024/01/24 10:45:43;;;;;;;14.40;6.80;;;12.80;99.90;;;;;;5040536;28;20169;-54
2024/01/24 10:48:11;;;;;;;13.48;6.30;;;12.80;99.90;;;;;;5037188;28;20310;-56
2024/01/24 10:50:39;;;;;;;17.92;5.60;;;12.80;99.90;;;;;;5035086;28;20066;-55
2024/01/24 10:53:08;;;;;;;10.10;4.45;;;12.80;99.90;;;;;;5042887;28;20232;-56
2024/01/24 10:55:36;;;;;;;8.65;4.85;;;12.70;99.90;;;;;;5039350;28;20062;-56
2024/01/24 10:58:03;;;;;;;14.55;5.45;;;12.80;99.90;;;;;;5041346;28;20107;-56
2024/01/24 11:00:30;;;;;;;12.32;5.43;;;12.70;99.90;;;;;;5040403;28;20062;-54
2024/01/24 11:02:57;;;;;;;11.57;5.30;;;12.70;99.90;;;;;;5033122;28;20100;-55
2024/01/24 11:05:37;;;;;;;13.00;5.00;;;12.80;99.90;;;;;;5037349;28;20152;-60
2024/01/24 11:08:20;;;;;;;15.38;5.28;;;12.80;99.90;;;;;;5035967;28;20074;-54
2024/01/24 11:10:49;;;;;;;12.43;4.53;;;12.80;99.90;;;;;;5038766;28;20065;-51
2024/01/24 11:13:18;;;;;;;10.43;4.50;;;12.70;99.90;;;;;;5059583;28;20109;-52
2024/01/24 11:15:46;;;;;;;8.05;3.92;;;12.80;99.90;;;;;;5055887;28;20131;-53
2024/01/24 11:18:24;;;;;;;8.63;3.65;;;12.80;99.90;;;;;;5044964;28;20091;-56
2024/01/24 11:20:59;;;;;;;7.85;3.47;;;12.90;99.90;;;;;;5045430;28;20130;-54
2024/01/24 11:23:44;;;;;;;12.38;3.28;;;12.90;99.90;;;;;;5039804;28;20096;-58
2024/01/24 11:26:32;;;;;;;9.73;3.78;;;13.00;99.90;;;;;;5040397;28;20070;-57
2024/01/24 11:29:11;;;;;;;5.93;3.00;;;13.00;99.90;;;;;;5047684;28;20199;-56
2024/01/24 11:31:39;;;;;;;9.63;3.78;;;13.10;99.90;;;;;;5041338;28;20084;-55
2024/01/24 11:34:07;;;;;;;8.93;3.88;;;13.10;99.90;;;;;;5038582;28;20073;-55
2024/01/24 11:36:48;;;;;;;10.40;4.05;;;13.00;99.90;;;;;;5059504;28;20073;-57
2024/01/24 11:39:35;;;;;;;12.48;4.10;;;12.90;99.90;;;;;;5050016;28;20097;-54
2024/01/24 11:42:26;;;;;;;9.45;4.25;;;12.90;99.90;;;;;;5041324;28;20155;-56
2024/01/24 11:44:53;;;;;;;12.32;4.82;;;12.90;99.90;;;;;;5040567;28;20155;-57
2024/01/24 11:47:23;;;;;;;9.60;3.95;;;12.90;99.90;;;;;;5057198;28;20172;-58
2024/01/24 11:49:50;;;;;;;12.70;4.50;;;12.90;99.90;;;;;;5040007;28;20061;-55
2024/01/24 11:52:23;;;;;;;11.27;4.22;;;12.80;99.90;;;;;;5043048;28;20152;-61
2024/01/24 11:54:53;;;;;;;11.00;4.15;;;12.80;99.90;;;;;;5044260;28;20530;-57
2024/01/24 11:57:19;;;;;;;8.93;4.25;;;12.80;99.90;;;;;;5045347;28;20430;-56
2024/01/24 11:59:46;;;;;;;8.02;3.50;;;12.80;99.90;;;;;;5064934;28;20210;-57
2024/01/24 12:02:13;;;;;;;10.05;3.80;;;12.90;99.90;;;;;;5045157;28;20104;-58
2024/01/24 12:04:40;;;;;;;9.65;3.97;;;12.80;99.90;;;;;;5039671;28;20080;-56
2024/01/24 12:07:07;;;;;;;7.00;3.78;;;12.80;99.90;;;;;;5043929;28;20141;-55
2024/01/24 12:09:34;;;;;;;13.13;3.97;;;12.70;99.90;;;;;;5041245;28;20068;-58
2024/01/24 12:12:00;;;;;;;13.43;3.78;;;12.70;99.90;;;;;;5050003;28;20113;-60
2024/01/24 12:14:27;;;;;;;9.43;3.75;;;12.60;99.90;;;;;;5054694;28;20478;-55
2024/01/24 12:16:54;;;;;;;11.43;3.95;;;12.60;99.90;;;;;;5043870;28;20093;-55
2024/01/24 12:19:21;;;;;;;7.35;3.80;;;12.50;99.90;;;;;;5042704;28;20126;-54
2024/01/24 12:21:47;;;;;;;8.70;4.13;;;12.50;99.90;;;;;;5040136;28;20092;-57
2024/01/24 12:24:15;;;;;;;13.18;4.10;;;12.40;99.90;;;;;;5038306;28;20101;-52
2024/01/24 12:26:42;;;;;;;9.02;4.60;;;12.40;99.90;;;;;;5041553;28;20587;-57
2024/01/24 12:29:09;;;;;;;13.30;4.38;;;12.30;99.90;;;;;;5037860;28;20072;-56
2024/01/24 12:31:42;;;;;;;14.40;4.97;;;12.30;99.90;;;;;;5057836;28;20079;-55
2024/01/24 12:34:08;;;;;;;8.80;4.28;;;12.20;99.90;;;;;;5056552;28;20147;-53